Date,TemperatureHighF,TemperatureAvgF,TemperatureLowF,DewpointHighF,DewpointAvgF,DewpointLowF,HumidityHigh,HumidityAvg,HumidityLow,PressureMaxIn,PressureMinIn,WindSpeedMaxMPH,WindSpeedAvgMPH,GustSpeedMaxMPH,PrecipitationSumIn
2013-7-10,83.7,77.4,67.6,62.7,58.9,55.6,73,54,41,30.04,29.97,12,3,17,0.00
2013-7-11,82.0,71.5,60.7,62.2,59.4,57.0,92,68,46,30.11,30.00,9,3,13,0.00
2013-7-12,83.9,72.9,61.9,65.1,61.3,57.7,87,69,51,30.07,29.98,12,3,17,0.00
2013-7-13,79.3,71.9,64.9,68.3,62.1,56.1,79,72,65,30.04,29.99,10,3,18,0.00
2013-7-14,83.9,74.9,63.9,67.1,63.8,60.9,90,70,51,30.16,30.05,11,3,17,0.00
2013-7-15,86.5,77.1,66.8,72.7,68.5,62.8,88,75,60,30.21,30.11,10,3,16,0.00
2013-7-16,90.1,81.1,71.2,73.7,71.5,69.0,93,74,54,30.23,30.17,5,1,12,0.00
2013-7-17,91.8,81.9,71.9,74.2,71.6,68.8,91,73,50,30.28,30.15,6,1,12,0.00
2013-7-18,91.9,82.7,73.9,74.2,70.8,68.5,87,70,47,30.16,29.94,11,4,19,0.00
2013-7-19,93.1,84.1,76.4,75.4,69.8,64.2,74,63,45,29.90,29.80,10,4,18,0.00
2013-7-20,86.5,76.0,63.5,66.3,63.1,60.3,92,67,42,29.95,29.84,6,1,11,0.00
2013-7-21,76.6,71.1,64.2,70.2,66.4,61.8,95,85,73,29.90,29.79,5,1,15,0.21
2013-7-22,91.3,76.9,64.9,75.8,69.0,61.6,97,79,53,29.85,29.70,13,3,28,0.31
2013-7-23,75.4,68.7,62.8,64.4,61.4,58.2,95,79,61,29.99,29.80,13,3,18,0.01
2013-7-24,79.4,69.4,56.9,62.2,59.2,55.4,96,72,51,30.07,29.99,8,1,12,0.00
2013-7-25,83.0,72.6,60.5,68.7,63.8,58.1,92,75,57,30.06,29.95,9,3,22,0.00
2013-7-26,77.1,70.0,59.8,67.7,60.1,53.3,97,73,46,30.05,29.94,12,4,23,0.11
2013-7-27,70.1,61.0,51.2,53.7,50.0,47.0,94,69,47,30.10,30.00,13,3,20,0.00
2013-7-28,75.7,63.3,48.3,53.3,49.8,45.5,90,64,40,30.08,30.01,11,3,17,0.00
2013-7-29,72.3,63.4,52.4,60.5,56.3,51.0,95,79,59,30.13,30.06,11,2,13,0.02
2013-7-30,70.7,66.0,62.1,67.0,64.3,60.6,98,94,88,30.09,30.03,6,2,11,0.13
2013-7-31,83.9,72.6,63.8,69.1,65.5,63.1,98,80,55,30.12,30.01,7,2,10,0.01